createdAt,value
2018-06-15T00:00:36.810Z,28.50
2018-06-15T00:01:39.593Z,22.00
2018-06-15T00:02:42.493Z,24.00
2018-06-15T00:03:45.232Z,25.75
2018-06-15T00:04:48.884Z,24.75
2018-06-15T00:05:52.068Z,23.75
2018-06-15T00:06:54.860Z,24.75
2018-06-15T00:07:57.630Z,24.00
2018-06-15T00:09:02.576Z,24.50
2018-06-15T00:10:05.353Z,24.50
2018-06-15T00:11:08.600Z,28.50
2018-06-15T00:12:11.387Z,28.25
2018-06-15T00:13:14.156Z,30.25
2018-06-15T00:14:18.128Z,27.25
2018-06-15T00:15:21.479Z,28.00
2018-06-15T00:16:25.234Z,23.75
2018-06-15T00:17:29.590Z,28.25
2018-06-15T00:18:34.575Z,29.50
2018-06-15T00:19:37.752Z,28.50
2018-06-15T00:20:40.875Z,29.75
2018-06-15T00:21:43.689Z,28.75
2018-06-15T00:22:46.545Z,31.50
2018-06-15T00:23:50.408Z,29.75
2018-06-15T00:24:53.265Z,28.25
2018-06-15T00:25:56.045Z,24.75
2018-06-15T00:26:58.844Z,27.75
2018-06-15T00:28:01.672Z,25.00
2018-06-15T00:29:04.444Z,30.25
2018-06-15T00:30:08.336Z,30.00
2018-06-15T00:31:11.126Z,33.00
2018-06-15T00:32:13.920Z,22.75
2018-06-15T00:33:16.708Z,24.00
2018-06-15T00:34:19.470Z,28.75
2018-06-15T00:35:22.358Z,28.00
2018-06-15T00:36:25.787Z,28.50
2018-06-15T00:37:29.284Z,28.50
2018-06-15T00:38:37.656Z,32.50
2018-06-15T00:39:42.187Z,25.50
2018-06-15T00:40:46.597Z,27.75
2018-06-15T00:41:49.456Z,34.25
2018-06-15T00:42:53.391Z,28.50
2018-06-15T00:43:56.671Z,31.00
2018-06-15T00:44:59.573Z,24.75
2018-06-15T00:46:05.825Z,26.25
2018-06-15T00:47:09.612Z,26.00
2018-06-15T00:48:14.907Z,25.25
2018-06-15T00:49:22.508Z,28.50
2018-06-15T00:50:26.272Z,24.25
2018-06-15T00:51:36.358Z,29.75
2018-06-15T00:52:40.824Z,23.25
2018-06-15T00:53:43.792Z,30.25
2018-06-15T00:54:46.802Z,30.00
2018-06-15T00:55:50.399Z,27.25
2018-06-15T00:56:53.179Z,26.25
2018-06-15T00:57:55.962Z,25.00
2018-06-15T00:58:59.226Z,28.50
2018-06-15T01:00:02.113Z,27.25
2018-06-15T01:01:05.030Z,26.25
2018-06-15T01:02:08.340Z,21.25
2018-06-15T01:03:12.308Z,22.75
2018-06-15T01:04:15.603Z,28.75
2018-06-15T01:05:19.081Z,23.50
2018-06-15T01:06:22.117Z,22.25
2018-06-15T01:07:24.898Z,29.75
2018-06-15T01:08:27.921Z,23.75
2018-06-15T01:09:30.682Z,23.75
2018-06-15T01:10:33.438Z,26.00
2018-06-15T01:11:36.203Z,23.50
2018-06-15T01:12:39.042Z,23.75
2018-06-15T01:13:41.831Z,22.75
2018-06-15T01:14:44.892Z,23.00
2018-06-15T01:15:47.668Z,23.50
2018-06-15T01:16:50.433Z,26.00
2018-06-15T01:17:53.181Z,21.75
2018-06-15T01:18:55.953Z,20.25
2018-06-15T01:19:59.368Z,21.75
2018-06-15T01:21:04.404Z,20.00
2018-06-15T01:22:07.167Z,19.75
2018-06-15T01:23:10.537Z,25.75
2018-06-15T01:24:13.272Z,19.75
2018-06-15T01:25:17.518Z,23.00
2018-06-15T01:26:20.315Z,21.50
2018-06-15T01:27:23.378Z,23.00
2018-06-15T01:28:26.192Z,23.50
2018-06-15T01:29:30.638Z,26.00
2018-06-15T01:30:33.425Z,28.00
2018-06-15T01:31:36.243Z,25.25
2018-06-15T01:32:38.995Z,26.00
2018-06-15T01:33:42.115Z,21.75
2018-06-15T01:34:44.861Z,29.50
2018-06-15T01:35:47.622Z,22.75
2018-06-15T01:36:51.030Z,20.75
2018-06-15T01:37:53.802Z,25.50
2018-06-15T01:38:56.577Z,20.75
2018-06-15T01:40:14.576Z,23.50
2018-06-15T01:41:17.353Z,22.75
2018-06-15T01:42:20.162Z,29.25
2018-06-15T01:43:23.012Z,23.00
2018-06-15T01:44:25.776Z,20.50
2018-06-15T01:45:28.857Z,19.25
2018-06-15T01:46:31.622Z,26.25
2018-06-15T01:47:36.217Z,23.75
2018-06-15T01:48:39.004Z,24.25
2018-06-15T01:49:43.071Z,24.50
2018-06-15T01:50:46.424Z,21.00
2018-06-15T01:51:49.485Z,24.25
2018-06-15T01:52:52.412Z,18.00
2018-06-15T01:53:55.218Z,25.50
2018-06-15T01:54:58.005Z,26.50
2018-06-15T01:56:01.008Z,18.00
2018-06-15T01:57:05.265Z,18.75
2018-06-15T01:58:08.304Z,23.50
2018-06-15T01:59:11.060Z,24.50
2018-06-15T02:00:13.857Z,30.00
2018-06-15T02:01:16.636Z,23.50
2018-06-15T02:02:19.406Z,30.25
2018-06-15T02:03:22.212Z,23.25
2018-06-15T02:04:25.289Z,24.25
2018-06-15T02:05:28.055Z,25.75
2018-06-15T02:06:30.866Z,24.00
2018-06-15T02:07:33.618Z,25.50
2018-06-15T02:08:36.394Z,26.25
2018-06-15T02:09:39.212Z,28.50
2018-06-15T02:10:42.976Z,30.00
2018-06-15T02:11:45.857Z,25.25
2018-06-15T02:12:48.635Z,26.00
2018-06-15T02:13:51.429Z,27.00
2018-06-15T02:14:54.193Z,29.00
2018-06-15T02:15:57.546Z,27.50
2018-06-15T02:17:00.692Z,33.25
2018-06-15T02:18:04.113Z,28.75
2018-06-15T02:19:06.867Z,22.50
2018-06-15T02:20:09.679Z,30.75
2018-06-15T02:21:13.159Z,29.50
2018-06-15T02:22:16.017Z,29.75
2018-06-15T02:23:19.800Z,29.50
2018-06-15T02:24:22.566Z,26.75
2018-06-15T02:25:25.375Z,27.00
2018-06-15T02:26:28.157Z,30.00
2018-06-15T02:27:30.926Z,32.25
2018-06-15T02:28:33.790Z,29.25
2018-06-15T02:29:36.890Z,38.50
2018-06-15T02:30:39.646Z,32.25
2018-06-15T02:31:42.438Z,28.25
2018-06-15T02:32:45.197Z,26.25
2018-06-15T02:33:47.996Z,29.50
2018-06-15T02:34:50.788Z,28.25
2018-06-15T02:35:53.865Z,25.75
2018-06-15T02:36:56.607Z,27.00
2018-06-15T02:37:59.425Z,29.75
2018-06-15T02:39:02.185Z,32.25
2018-06-15T02:40:04.945Z,26.50
2018-06-15T02:41:07.717Z,27.50
2018-06-15T02:42:10.807Z,30.75
2018-06-15T02:43:13.577Z,26.25
2018-06-15T02:44:16.344Z,28.75
2018-06-15T02:45:19.117Z,32.75
2018-06-15T02:46:21.884Z,27.75
2018-06-15T02:47:24.657Z,25.25
2018-06-15T02:48:27.742Z,27.25
2018-06-15T02:49:30.509Z,31.75
2018-06-15T02:50:33.284Z,22.25
2018-06-15T02:51:36.025Z,26.00
2018-06-15T02:52:39.114Z,27.50
2018-06-15T02:53:41.904Z,29.50
2018-06-15T02:54:45.034Z,26.50
2018-06-15T02:55:48.192Z,29.50
2018-06-15T02:56:51.095Z,32.25
2018-06-15T02:57:54.816Z,28.00
2018-06-15T02:58:57.632Z,25.00
2018-06-15T03:00:00.417Z,27.75
2018-06-15T03:01:03.535Z,26.00
2018-06-15T03:02:06.305Z,28.00
2018-06-15T03:03:09.048Z,25.75
2018-06-15T03:04:11.861Z,23.25
2018-06-15T03:05:14.634Z,31.50
2018-06-15T03:06:17.453Z,27.25
2018-06-15T03:07:20.506Z,23.25
2018-06-15T03:08:23.289Z,28.00
2018-06-15T03:09:29.262Z,21.25
2018-06-15T03:10:32.024Z,21.75
2018-06-15T03:11:34.798Z,20.75
2018-06-15T03:12:37.595Z,20.00
2018-06-15T03:13:40.710Z,23.25
2018-06-15T03:14:43.533Z,19.50
2018-06-15T03:15:46.334Z,21.75
2018-06-15T03:16:50.064Z,20.25
2018-06-15T03:17:52.826Z,19.00
2018-06-15T03:18:55.624Z,16.50
2018-06-15T03:19:59.515Z,22.00
2018-06-15T03:21:02.278Z,19.25
2018-06-15T03:22:05.883Z,17.25
2018-06-15T03:23:08.621Z,21.75
2018-06-15T03:24:12.608Z,21.25
2018-06-15T03:25:16.187Z,19.50
2018-06-15T03:26:19.214Z,22.00
2018-06-15T03:27:23.636Z,20.00
2018-06-15T03:28:26.397Z,17.50
2018-06-15T03:29:29.184Z,19.50
2018-06-15T03:30:31.955Z,20.75
2018-06-15T03:31:34.697Z,22.00
2018-06-15T03:32:37.497Z,21.25
2018-06-15T03:33:40.294Z,19.75
2018-06-15T03:34:44.350Z,20.75
2018-06-15T03:35:47.156Z,19.00
2018-06-15T03:36:49.936Z,20.00
2018-06-15T03:37:52.817Z,20.50
2018-06-15T03:38:56.898Z,22.00
2018-06-15T03:39:59.670Z,26.25
2018-06-15T03:41:02.470Z,21.50
2018-06-15T03:42:05.265Z,19.25
2018-06-15T03:43:08.062Z,20.50
2018-06-15T03:44:10.815Z,24.00
2018-06-15T03:45:13.913Z,19.00
2018-06-15T03:46:16.760Z,19.00
2018-06-15T03:47:20.328Z,20.25
2018-06-15T03:48:23.075Z,22.75
2018-06-15T03:49:25.852Z,23.25
2018-06-15T03:50:28.625Z,22.50
2018-06-15T03:51:31.770Z,23.75
2018-06-15T03:52:35.405Z,19.50
2018-06-15T03:53:38.186Z,23.00
2018-06-15T03:54:41.027Z,22.00
2018-06-15T03:55:43.804Z,20.00
2018-06-15T03:56:46.628Z,19.75
2018-06-15T03:57:49.710Z,24.50
2018-06-15T03:58:52.817Z,23.50
2018-06-15T03:59:55.587Z,24.00
2018-06-15T04:00:59.008Z,24.00
2018-06-15T04:02:01.853Z,21.75
2018-06-15T04:03:07.134Z,24.00
2018-06-15T04:04:10.615Z,25.25
2018-06-15T04:05:13.424Z,22.00
2018-06-15T04:06:16.173Z,22.75
2018-06-15T04:07:18.970Z,21.50
2018-06-15T04:08:21.746Z,18.00
2018-06-15T04:09:24.487Z,20.50
2018-06-15T04:10:27.244Z,17.75
2018-06-15T04:11:30.928Z,14.00
2018-06-15T04:12:36.622Z,14.00
2018-06-15T04:13:39.373Z,19.50
2018-06-15T04:14:42.245Z,17.75
2018-06-15T04:15:45.372Z,14.50
2018-06-15T04:16:48.154Z,18.50
2018-06-15T04:17:57.546Z,14.00
2018-06-15T04:19:00.288Z,17.25
2018-06-15T04:20:03.117Z,16.50
2018-06-15T04:21:06.206Z,17.00
2018-06-15T04:22:09.247Z,17.00
2018-06-15T04:23:12.697Z,18.25
2018-06-15T04:24:16.516Z,18.75
2018-06-15T04:25:19.316Z,16.00
2018-06-15T04:26:22.103Z,17.25
2018-06-15T04:27:24.869Z,17.00
2018-06-15T04:28:27.927Z,17.00
2018-06-15T04:29:31.790Z,16.75
2018-06-15T04:30:34.549Z,17.50
2018-06-15T04:31:37.906Z,16.50
2018-06-15T04:32:40.736Z,17.00
2018-06-15T04:33:43.495Z,15.75
2018-06-15T04:34:46.244Z,16.50
2018-06-15T04:35:49.071Z,20.25
2018-06-15T04:36:51.850Z,17.00
2018-06-15T04:37:55.299Z,18.75
2018-06-15T04:38:58.551Z,21.25
2018-06-15T04:40:01.412Z,18.75
2018-06-15T04:41:04.164Z,22.50
2018-06-15T04:42:07.955Z,18.00
2018-06-15T04:43:10.769Z,22.00
2018-06-15T04:44:15.495Z,18.25
2018-06-15T04:45:21.141Z,23.25
2018-06-15T04:46:25.126Z,17.25
2018-06-15T04:47:30.371Z,18.00
2018-06-15T04:48:33.979Z,16.50
2018-06-15T04:49:37.396Z,19.25
2018-06-15T04:50:40.719Z,15.25
2018-06-15T04:51:44.408Z,16.50
2018-06-15T04:52:47.387Z,17.50
2018-06-15T04:53:50.661Z,17.50
2018-06-15T04:54:53.609Z,17.00
2018-06-15T04:55:57.163Z,16.75
2018-06-15T04:57:01.849Z,18.00
2018-06-15T04:58:06.897Z,18.25
2018-06-15T04:59:10.672Z,15.00
2018-06-15T05:00:14.772Z,19.00
2018-06-15T05:01:19.474Z,17.00
2018-06-15T05:02:24.047Z,14.00
2018-06-15T05:03:29.634Z,15.00
2018-06-15T05:04:33.467Z,22.25
2018-06-15T05:05:38.051Z,15.00
2018-06-15T05:06:43.458Z,14.50
2018-06-15T05:07:47.569Z,17.00
2018-06-15T05:08:50.330Z,17.25
2018-06-15T05:09:54.053Z,17.25
2018-06-15T05:10:57.118Z,17.00
2018-06-15T05:12:00.323Z,15.00
2018-06-15T05:13:04.207Z,17.25
2018-06-15T05:14:07.756Z,21.00
2018-06-15T05:15:11.576Z,20.50
2018-06-15T05:16:14.717Z,18.00
2018-06-15T05:17:17.951Z,20.25
2018-06-15T05:18:20.810Z,19.75
2018-06-15T05:19:23.590Z,15.50
2018-06-15T05:20:26.406Z,19.25
2018-06-15T05:21:29.205Z,17.00
2018-06-15T05:22:32.043Z,20.75
2018-06-15T05:23:35.163Z,21.50
2018-06-15T05:24:37.943Z,19.25
2018-06-15T05:25:41.140Z,17.00
2018-06-15T05:26:48.197Z,14.75
2018-06-15T05:27:51.142Z,16.25
2018-06-15T05:28:57.869Z,19.75
2018-06-15T05:30:00.637Z,18.25
2018-06-15T05:31:03.729Z,18.00
2018-06-15T05:32:06.533Z,16.75
2018-06-15T05:33:10.930Z,18.00
2018-06-15T05:34:13.718Z,22.00
2018-06-15T05:35:17.713Z,20.00
2018-06-15T05:36:20.589Z,24.50
2018-06-15T05:37:23.449Z,17.00
2018-06-15T05:38:26.227Z,20.50
2018-06-15T05:39:29.068Z,20.25
2018-06-15T05:40:31.890Z,21.00
2018-06-15T05:41:34.965Z,18.75
2018-06-15T05:42:38.647Z,18.00
2018-06-15T05:43:41.546Z,16.50
2018-06-15T05:44:44.319Z,22.50
2018-06-15T05:45:49.322Z,17.00
2018-06-15T05:46:53.288Z,18.75
2018-06-15T05:47:56.369Z,17.50
2018-06-15T05:48:59.286Z,20.00
2018-06-15T05:50:02.176Z,17.50
2018-06-15T05:51:04.999Z,22.00
2018-06-15T05:52:08.450Z,23.00
2018-06-15T05:53:11.739Z,21.50
2018-06-15T05:54:15.141Z,22.00
2018-06-15T05:55:18.587Z,22.75
2018-06-15T05:56:21.471Z,25.75
2018-06-15T05:57:25.312Z,18.25
2018-06-15T05:58:30.077Z,20.25
2018-06-15T05:59:34.039Z,23.75
2018-06-15T06:00:37.235Z,22.75
2018-06-15T06:01:40.067Z,17.25
2018-06-15T06:02:43.340Z,23.50
2018-06-15T06:03:46.799Z,22.75
2018-06-15T06:04:50.400Z,19.25
2018-06-15T06:05:54.188Z,16.00
2018-06-15T06:07:00.312Z,22.00
2018-06-15T06:08:03.108Z,21.25
2018-06-15T06:09:05.895Z,23.50
2018-06-15T06:10:08.712Z,23.25
2018-06-15T06:11:11.979Z,22.25
2018-06-15T06:12:15.622Z,20.75
2018-06-15T06:13:20.759Z,25.75
2018-06-15T06:14:24.190Z,24.00
2018-06-15T06:15:28.917Z,21.50
2018-06-15T06:16:31.804Z,26.25
2018-06-15T06:17:35.170Z,22.25
2018-06-15T06:18:37.961Z,25.75
2018-06-15T06:19:55.296Z,24.75
2018-06-15T06:20:58.580Z,21.00
2018-06-15T06:22:01.349Z,20.25
2018-06-15T06:23:04.208Z,27.50
2018-06-15T06:24:08.970Z,26.00
2018-06-15T06:25:12.545Z,26.50
2018-06-15T06:26:15.655Z,27.75
2018-06-15T06:27:20.606Z,23.50
2018-06-15T06:28:24.828Z,24.50
2018-06-15T06:29:27.609Z,22.50
2018-06-15T06:30:30.672Z,21.25
2018-06-15T06:31:33.483Z,25.00
2018-06-15T06:32:36.615Z,26.25
2018-06-15T06:33:39.471Z,25.25
2018-06-15T06:34:45.931Z,26.50
2018-06-15T06:35:48.732Z,26.50
2018-06-15T06:36:51.797Z,27.75
2018-06-15T06:37:56.481Z,25.75
2018-06-15T06:39:02.643Z,26.00
2018-06-15T06:40:06.430Z,24.75
2018-06-15T06:41:09.230Z,29.50
2018-06-15T06:42:12.090Z,23.75
2018-06-15T06:43:14.940Z,22.00
2018-06-15T06:44:17.731Z,25.00
2018-06-15T06:45:29.391Z,29.75
2018-06-15T06:46:32.314Z,27.00
2018-06-15T06:47:37.488Z,33.00
2018-06-15T06:48:41.497Z,27.00
2018-06-15T06:49:44.387Z,28.75
2018-06-15T06:50:47.201Z,21.50
2018-06-15T06:51:50.867Z,26.00
2018-06-15T06:52:53.861Z,27.75
2018-06-15T06:54:03.852Z,27.25
2018-06-15T06:55:09.830Z,29.75
2018-06-15T06:56:13.481Z,25.00
2018-06-15T06:57:16.614Z,21.75
2018-06-15T06:58:20.780Z,30.50
2018-06-15T06:59:24.385Z,24.00
2018-06-15T07:00:32.071Z,24.25
2018-06-15T07:01:36.524Z,25.00
2018-06-15T07:02:39.354Z,26.75
2018-06-15T07:03:42.943Z,21.00
2018-06-15T07:04:47.081Z,22.00
2018-06-15T07:05:49.985Z,23.25
2018-06-15T07:06:52.899Z,25.50
2018-06-15T07:07:56.640Z,23.00
2018-06-15T07:09:04.706Z,23.50
2018-06-15T07:10:07.661Z,27.25
2018-06-15T07:11:15.591Z,24.25
2018-06-15T07:12:18.741Z,22.50
2018-06-15T07:13:21.733Z,24.75
2018-06-15T07:14:27.520Z,24.75
2018-06-15T07:15:31.300Z,25.00
2018-06-15T07:16:34.254Z,24.75
2018-06-15T07:17:37.447Z,24.00
2018-06-15T07:18:40.785Z,23.25
2018-06-15T07:19:46.019Z,22.75
2018-06-15T07:20:59.232Z,19.00
2018-06-15T07:22:08.626Z,28.00
2018-06-15T07:23:12.150Z,20.75
2018-06-15T07:24:16.258Z,24.75
2018-06-15T07:25:23.336Z,23.50
2018-06-15T07:26:29.073Z,26.75
2018-06-15T07:27:33.319Z,21.50
2018-06-15T07:28:37.261Z,23.75
2018-06-15T07:29:41.285Z,22.25
2018-06-15T07:30:45.433Z,26.50
2018-06-15T07:31:49.193Z,28.50
2018-06-15T07:32:52.842Z,29.00
2018-06-15T07:33:58.648Z,24.50
2018-06-15T07:35:06.595Z,27.75
2018-06-15T07:36:11.256Z,30.25
2018-06-15T07:37:19.715Z,25.50
2018-06-15T07:38:30.326Z,27.25
2018-06-15T07:39:34.250Z,24.75
2018-06-15T07:40:39.285Z,27.25
2018-06-15T07:41:44.529Z,27.25
2018-06-15T07:42:49.557Z,24.75
2018-06-15T07:43:53.504Z,28.75
2018-06-15T07:44:57.205Z,30.00
2018-06-15T07:46:03.458Z,40.50
2018-06-15T07:47:10.966Z,31.00
2018-06-15T07:48:15.099Z,33.50
2018-06-15T07:49:18.964Z,32.25
2018-06-15T07:50:32.695Z,28.25
2018-06-15T07:51:36.674Z,29.25
2018-06-15T07:52:40.428Z,31.00
2018-06-15T07:53:45.018Z,29.25
2018-06-15T07:54:51.451Z,29.75
2018-06-15T07:55:56.132Z,30.75
2018-06-15T07:57:04.900Z,30.50
2018-06-15T07:58:09.044Z,29.00
2018-06-15T07:59:12.739Z,27.75
2018-06-15T08:00:16.971Z,28.50
2018-06-15T08:01:23.300Z,30.25
2018-06-15T08:02:27.301Z,24.75
2018-06-15T08:03:42.780Z,27.50
2018-06-15T08:04:47.940Z,35.50
2018-06-15T08:05:56.440Z,25.75
2018-06-15T08:07:00.038Z,21.75
2018-06-15T08:08:04.945Z,24.75
2018-06-15T08:09:10.558Z,25.75
2018-06-15T08:10:13.441Z,26.00
2018-06-15T08:11:21.625Z,22.50
2018-06-15T08:13:34.937Z,23.25
2018-06-15T08:14:37.846Z,22.00
2018-06-15T08:15:41.114Z,20.75
2018-06-15T08:16:50.310Z,26.75
2018-06-15T08:17:53.773Z,23.00
2018-06-15T08:18:57.512Z,22.75
2018-06-15T08:20:00.358Z,24.75
2018-06-15T08:21:03.743Z,23.25
2018-06-15T08:22:11.591Z,22.25
2018-06-15T08:23:14.649Z,20.50
2018-06-15T08:24:17.595Z,22.00
2018-06-15T08:25:20.387Z,24.00
2018-06-15T08:26:26.214Z,21.50
2018-06-15T08:27:29.021Z,21.25
2018-06-15T08:28:34.157Z,24.25
2018-06-15T08:29:37.009Z,20.75
2018-06-15T08:30:43.512Z,23.50
2018-06-15T08:31:46.260Z,17.75
2018-06-15T08:32:49.084Z,20.50
2018-06-15T08:33:53.076Z,20.00
2018-06-15T08:34:57.440Z,22.25
2018-06-15T08:36:00.797Z,21.50
2018-06-15T08:37:03.620Z,18.00
2018-06-15T08:38:07.277Z,20.75
2018-06-15T08:39:10.397Z,23.00
2018-06-15T08:40:13.824Z,22.50
2018-06-15T08:41:17.836Z,20.50
2018-06-15T08:42:20.695Z,17.50
2018-06-15T08:43:24.395Z,23.75
2018-06-15T08:44:27.339Z,23.00
2018-06-15T08:45:31.247Z,21.50
2018-06-15T08:46:34.676Z,19.00
2018-06-15T08:47:39.413Z,19.50
2018-06-15T08:48:43.421Z,17.00
2018-06-15T08:49:46.343Z,17.50
2018-06-15T08:50:49.217Z,18.75
2018-06-15T08:51:52.731Z,21.00
2018-06-15T08:52:55.494Z,19.75
2018-06-15T08:53:59.434Z,19.75
2018-06-15T08:55:06.977Z,20.00
2018-06-15T08:56:10.552Z,18.75
2018-06-15T08:57:14.275Z,18.50
2018-06-15T08:58:17.724Z,20.00
2018-06-15T08:59:20.490Z,16.25
2018-06-15T09:00:23.775Z,16.50
2018-06-15T09:01:29.279Z,17.25
2018-06-15T09:02:32.616Z,21.25
2018-06-15T09:03:35.464Z,18.50
2018-06-15T09:04:41.123Z,21.50
2018-06-15T09:05:45.909Z,20.25
2018-06-15T09:06:49.237Z,17.25
2018-06-15T09:07:52.188Z,19.00
2018-06-15T09:08:55.105Z,18.25
2018-06-15T09:09:57.974Z,17.25
2018-06-15T09:11:00.817Z,14.00
2018-06-15T09:12:03.692Z,18.00
2018-06-15T09:13:07.690Z,16.75
2018-06-15T09:14:11.782Z,18.25
2018-06-15T09:15:14.631Z,21.50
2018-06-15T09:16:19.363Z,17.50
2018-06-15T09:17:22.241Z,15.00
2018-06-15T09:18:27.802Z,17.25
2018-06-15T09:19:31.807Z,15.25
2018-06-15T09:20:35.578Z,15.25
2018-06-15T09:21:38.368Z,12.50
2018-06-15T09:22:42.644Z,13.00
2018-06-15T09:23:47.041Z,15.00
2018-06-15T09:24:51.092Z,15.00
2018-06-15T09:25:55.338Z,13.00
2018-06-15T09:26:58.152Z,14.75
2018-06-15T09:28:01.564Z,14.75
2018-06-15T09:29:05.196Z,12.00
2018-06-15T09:30:07.992Z,14.25
2018-06-15T09:31:11.302Z,12.75
2018-06-15T09:32:15.385Z,12.00
2018-06-15T09:33:19.391Z,10.00
2018-06-15T09:34:23.246Z,13.75
2018-06-15T09:35:26.224Z,12.75
2018-06-15T09:36:30.023Z,13.50
2018-06-15T09:37:33.241Z,11.00
2018-06-15T09:38:36.746Z,12.25
2018-06-15T09:39:39.555Z,13.50
2018-06-15T09:40:44.625Z,15.00
2018-06-15T09:41:47.399Z,12.75
2018-06-15T09:42:50.350Z,13.50
2018-06-15T09:43:56.788Z,15.00
2018-06-15T09:45:00.076Z,12.75
2018-06-15T09:46:03.894Z,13.00
2018-06-15T09:47:08.122Z,12.50
2018-06-15T09:48:12.105Z,15.50
2018-06-15T09:49:14.940Z,11.75
2018-06-15T09:50:17.759Z,14.00
2018-06-15T09:51:22.407Z,14.00
2018-06-15T09:52:25.303Z,9.25
2018-06-15T09:53:28.587Z,11.00
2018-06-15T09:54:31.660Z,11.75
2018-06-15T09:55:34.655Z,12.00
2018-06-15T09:56:37.472Z,12.00
2018-06-15T09:57:40.735Z,13.75
2018-06-15T09:58:43.552Z,9.75
2018-06-15T09:59:47.613Z,10.00
2018-06-15T10:00:51.432Z,10.75
2018-06-15T10:01:54.264Z,10.75
2018-06-15T10:02:57.101Z,12.75
2018-06-15T10:04:03.225Z,13.75
2018-06-15T10:05:06.297Z,10.00
2018-06-15T10:06:09.805Z,11.25
2018-06-15T10:07:12.690Z,12.00
2018-06-15T10:08:15.512Z,10.00
2018-06-15T10:09:19.135Z,13.25
2018-06-15T10:10:22.406Z,13.00
2018-06-15T10:11:27.715Z,9.00
2018-06-15T10:12:32.521Z,10.25
2018-06-15T10:13:36.235Z,11.00
2018-06-15T10:14:41.697Z,10.75
2018-06-15T10:15:45.218Z,11.00
2018-06-15T10:16:49.235Z,10.25
2018-06-15T10:17:55.035Z,8.75
2018-06-15T10:18:59.296Z,11.00
2018-06-15T10:20:02.914Z,10.25
2018-06-15T10:21:06.683Z,8.75
2018-06-15T10:22:10.603Z,10.50
2018-06-15T10:23:15.390Z,10.00
2018-06-15T10:24:19.145Z,10.25
2018-06-15T10:25:25.031Z,7.50
2018-06-15T10:26:28.761Z,10.00
2018-06-15T10:27:33.345Z,10.75
2018-06-15T10:28:36.641Z,11.00
2018-06-15T10:29:43.468Z,10.25
2018-06-15T10:30:49.829Z,10.75
2018-06-15T10:31:52.698Z,10.00
2018-06-15T10:32:57.991Z,10.00
2018-06-15T10:34:01.719Z,11.75
2018-06-15T10:35:04.608Z,9.00
2018-06-15T10:36:08.081Z,9.75
2018-06-15T10:37:12.468Z,12.50
2018-06-15T10:38:30.257Z,9.75
2018-06-15T10:39:35.812Z,10.00
2018-06-15T10:40:42.002Z,12.25
2018-06-15T10:41:46.392Z,10.00
2018-06-15T10:42:54.684Z,10.50
2018-06-15T10:43:58.314Z,12.00
2018-06-15T10:45:04.832Z,9.75
2018-06-15T10:46:16.516Z,12.25
2018-06-15T10:47:20.333Z,7.00
2018-06-15T10:48:24.586Z,10.25
2018-06-15T10:49:27.803Z,10.00
2018-06-15T10:50:33.640Z,9.75
2018-06-15T10:51:37.857Z,9.00
2018-06-15T10:52:43.269Z,10.00
2018-06-15T10:53:46.263Z,9.50
2018-06-15T10:54:49.368Z,7.50
2018-06-15T10:55:53.336Z,10.25
2018-06-15T10:56:56.892Z,9.00
2018-06-15T10:58:00.611Z,8.50
2018-06-15T10:59:08.254Z,10.00
2018-06-15T11:00:11.625Z,8.25
2018-06-15T11:01:14.472Z,10.00
2018-06-15T11:02:20.960Z,8.75
2018-06-15T11:03:25.961Z,10.25
2018-06-15T11:04:35.374Z,7.75
2018-06-15T11:05:39.286Z,11.75
2018-06-15T11:06:42.470Z,11.75
2018-06-15T11:07:45.315Z,10.00
2018-06-15T11:08:48.641Z,10.25
2018-06-15T11:09:56.310Z,8.75
2018-06-15T11:10:59.859Z,9.00
2018-06-15T11:12:02.647Z,10.00
2018-06-15T11:13:06.067Z,8.50
2018-06-15T11:14:12.817Z,7.75
2018-06-15T11:16:26.249Z,11.25
2018-06-15T11:17:29.124Z,9.50
2018-06-15T11:18:31.919Z,8.00
2018-06-15T11:19:34.724Z,10.00
2018-06-15T11:20:38.299Z,11.00
2018-06-15T11:21:41.162Z,10.00
2018-06-15T11:22:46.941Z,7.75
2018-06-15T11:23:49.705Z,11.00
2018-06-15T11:24:55.108Z,10.75
2018-06-15T11:25:59.106Z,7.00
2018-06-15T11:27:01.931Z,10.75
2018-06-15T11:28:04.716Z,9.25
2018-06-15T11:29:07.541Z,8.00
2018-06-15T11:30:11.967Z,12.50
2018-06-15T11:31:15.359Z,7.00
2018-06-15T11:32:20.370Z,10.00
2018-06-15T11:33:25.355Z,7.00
2018-06-15T11:34:28.171Z,8.00
2018-06-15T11:35:30.936Z,9.00
2018-06-15T11:36:34.386Z,10.00
2018-06-15T11:37:38.155Z,9.25
2018-06-15T11:38:42.566Z,10.00
2018-06-15T11:39:45.761Z,11.75
2018-06-15T11:40:48.684Z,8.75
2018-06-15T11:41:51.475Z,10.50
2018-06-15T11:42:57.994Z,10.25
2018-06-15T11:44:01.252Z,9.25
2018-06-15T11:45:04.095Z,10.50
2018-06-15T11:46:07.267Z,9.00
2018-06-15T11:47:10.045Z,7.50
2018-06-15T11:48:13.866Z,10.75
2018-06-15T11:49:16.646Z,10.25
2018-06-15T11:50:20.524Z,10.50
2018-06-15T11:51:24.901Z,10.00
2018-06-15T11:52:29.503Z,10.00
2018-06-15T11:53:32.249Z,7.75
2018-06-15T11:54:36.285Z,10.75
2018-06-15T11:55:40.758Z,8.25
2018-06-15T11:56:43.600Z,9.75
2018-06-15T11:57:47.268Z,10.00
2018-06-15T11:58:50.562Z,8.00
2018-06-15T11:59:54.454Z,10.25
2018-06-15T12:00:58.374Z,9.50
2018-06-15T12:02:01.768Z,11.75
2018-06-15T12:03:04.556Z,10.00
2018-06-15T12:04:07.280Z,8.00
2018-06-15T12:05:10.463Z,10.75
2018-06-15T12:06:13.340Z,8.25
2018-06-15T12:07:17.240Z,9.00
2018-06-15T12:08:20.899Z,10.25
2018-06-15T12:10:44.680Z,10.75
2018-06-15T12:11:47.495Z,9.75
2018-06-15T12:12:50.365Z,10.25
2018-06-15T12:13:53.122Z,8.75
2018-06-15T12:14:55.893Z,12.75
2018-06-15T12:16:00.285Z,7.25
2018-06-15T12:17:03.340Z,7.00
2018-06-15T12:18:06.241Z,10.00
2018-06-15T12:19:09.691Z,8.00
2018-06-15T12:20:14.367Z,8.00
2018-06-15T12:21:17.240Z,8.00
2018-06-15T12:22:20.436Z,7.25
2018-06-15T12:23:23.625Z,6.75
2018-06-15T12:24:26.431Z,7.75
2018-06-15T12:25:29.721Z,8.00
2018-06-15T12:26:32.692Z,10.00
2018-06-15T12:27:35.484Z,9.75
2018-06-15T12:28:38.917Z,8.75
2018-06-15T12:29:43.077Z,9.25
2018-06-15T12:30:45.905Z,9.75
2018-06-15T12:31:48.705Z,9.75
2018-06-15T12:32:52.323Z,10.50
2018-06-15T12:33:55.746Z,7.25
2018-06-15T12:35:00.677Z,7.50
2018-06-15T12:36:03.727Z,7.25
2018-06-15T12:37:06.800Z,9.50
2018-06-15T12:38:10.151Z,8.25
2018-06-15T12:39:12.964Z,8.00
2018-06-15T12:40:15.749Z,7.00
2018-06-15T12:41:20.307Z,7.00
2018-06-15T12:42:23.423Z,7.00
2018-06-15T12:43:26.211Z,7.00
2018-06-15T12:44:28.991Z,8.00
2018-06-15T12:45:31.745Z,7.00
2018-06-15T12:46:35.368Z,8.50
2018-06-15T12:47:38.796Z,7.75
2018-06-15T12:48:44.018Z,7.50
2018-06-15T12:49:47.384Z,9.75
2018-06-15T12:50:51.201Z,9.75
2018-06-15T12:51:54.013Z,8.00
2018-06-15T12:52:57.644Z,7.50
2018-06-15T12:54:01.460Z,11.00
2018-06-15T12:55:07.624Z,6.25
2018-06-15T12:56:10.404Z,9.50
2018-06-15T12:57:15.630Z,7.00
2018-06-15T12:58:18.423Z,11.00
2018-06-15T12:59:21.245Z,8.00
2018-06-15T13:00:27.530Z,7.00
2018-06-15T13:01:31.799Z,7.00
2018-06-15T13:02:34.700Z,8.50
2018-06-15T13:03:38.453Z,8.50
2018-06-15T13:04:42.012Z,8.00
2018-06-15T13:05:45.971Z,10.75
2018-06-15T13:06:49.805Z,7.25
2018-06-15T13:07:53.080Z,8.50
2018-06-15T13:08:55.929Z,10.75
2018-06-15T13:10:01.537Z,8.00
2018-06-15T13:11:06.616Z,6.50
2018-06-15T13:12:09.667Z,7.00
2018-06-15T13:13:14.051Z,6.25
2018-06-15T13:14:17.997Z,11.50
2018-06-15T13:15:21.101Z,9.25
2018-06-15T13:16:24.934Z,8.25
2018-06-15T13:17:27.764Z,7.50
2018-06-15T13:18:33.232Z,7.50
2018-06-15T13:19:36.660Z,7.00
2018-06-15T13:20:40.036Z,7.75
2018-06-15T13:21:46.573Z,7.50
2018-06-15T13:22:49.382Z,7.50
2018-06-15T13:23:55.645Z,8.00
2018-06-15T13:24:59.337Z,8.00
2018-06-15T13:26:02.164Z,9.00
2018-06-15T13:27:05.855Z,7.75
2018-06-15T13:28:08.654Z,7.75
2018-06-15T13:29:11.424Z,9.25
2018-06-15T13:30:15.374Z,6.50
2018-06-15T13:31:18.136Z,8.75
2018-06-15T13:32:21.852Z,7.50
2018-06-15T13:33:25.896Z,8.00
2018-06-15T13:34:28.706Z,9.00
2018-06-15T13:35:32.690Z,6.50
2018-06-15T13:36:38.002Z,8.00
2018-06-15T13:37:41.463Z,7.00
2018-06-15T13:38:45.279Z,8.00
2018-06-15T13:39:48.413Z,9.00
2018-06-15T13:40:51.249Z,7.00
2018-06-15T13:41:54.025Z,7.25
2018-06-15T13:42:57.219Z,8.00
2018-06-15T13:44:03.035Z,10.75
2018-06-15T13:45:10.643Z,7.00
2018-06-15T13:46:13.447Z,7.00
2018-06-15T13:47:16.216Z,8.25
2018-06-15T13:48:18.973Z,7.00
2018-06-15T13:49:21.754Z,7.25